sensor_id;sensor_type;location;lat;lon;timestamp;pressure;altitude;pressure_sealevel;temperature;humidity
2036;BME280;23642;42.658;23.350;2023-12-04T00:00:42;49887.94;;;-146.31;87.79
2036;BME280;23642;42.658;23.350;2023-12-04T00:04:32;49879.69;;;-146.31;87.52
2036;BME280;23642;42.658;23.350;2023-12-04T00:10:12;50017.84;;;-146.31;84.92
2036;BME280;23642;42.658;23.350;2023-12-04T00:12:41;50017.84;;;-146.31;84.32
2036;BME280;23642;42.658;23.350;2023-12-04T00:15:16;50011.66;;;-146.31;83.82
2036;BME280;23642;42.658;23.350;2023-12-04T00:21:41;50030.22;;;-146.31;84.60
2036;BME280;23642;42.658;23.350;2023-12-04T00:24:30;50065.28;;;-146.31;83.57
2036;BME280;23642;42.658;23.350;2023-12-04T00:33:38;50131.28;;;-146.31;81.97
2036;BME280;23642;42.658;23.350;2023-12-04T00:36:26;50168.38;;;-146.31;81.89
2036;BME280;23642;42.658;23.350;2023-12-04T00:42:03;50151.91;;;-146.31;82.02
2036;BME280;23642;42.658;23.350;2023-12-04T00:44:54;50186.94;;;-146.31;81.53
2036;BME280;23642;42.658;23.350;2023-12-04T00:48:01;50213.75;;;-146.31;81.08
2036;BME280;23642;42.658;23.350;2023-12-04T00:50:54;50242.63;;;-146.31;81.13
2036;BME280;23642;42.658;23.350;2023-12-04T00:54:03;50197.25;;;-146.31;81.61
2036;BME280;23642;42.658;23.350;2023-12-04T01:00:46;50170.44;;;-146.31;83.11
2036;BME280;23642;42.658;23.350;2023-12-04T01:03:57;50230.25;;;-146.31;82.54
2036;BME280;23642;42.658;23.350;2023-12-04T01:06:46;50205.50;;;-146.31;82.39
2036;BME280;23642;42.658;23.350;2023-12-04T01:09:31;50203.44;;;-146.31;82.84
2036;BME280;23642;42.658;23.350;2023-12-04T01:15:32;50269.44;;;-146.31;80.61
2036;BME280;23642;42.658;23.350;2023-12-04T01:18:16;50263.25;;;-146.31;80.90
2036;BME280;23642;42.658;23.350;2023-12-04T01:20:51;50281.81;;;-146.31;81.06
2036;BME280;23642;42.658;23.350;2023-12-04T01:23:35;50306.56;;;-146.31;80.88
2036;BME280;23642;42.658;23.350;2023-12-04T01:26:26;50302.44;;;-146.31;81.27
2036;BME280;23642;42.658;23.350;2023-12-04T01:29:10;50285.94;;;-146.31;80.65
2036;BME280;23642;42.658;23.350;2023-12-04T01:31:52;50294.19;;;-146.31;81.62
2036;BME280;23642;42.658;23.350;2023-12-04T01:34:33;50296.25;;;-146.31;81.37
2036;BME280;23642;42.658;23.350;2023-12-04T01:37:24;50292.13;;;-146.31;81.71
2036;BME280;23642;42.658;23.350;2023-12-04T01:40:35;50275.63;;;-146.31;82.69
2036;BME280;23642;42.658;23.350;2023-12-04T01:43:30;50296.25;;;-146.31;82.53
2036;BME280;23642;42.658;23.350;2023-12-04T01:46:41;50257.06;;;-146.31;81.75
2036;BME280;23642;42.658;23.350;2023-12-04T01:49:09;50304.50;;;-146.31;81.08
2036;BME280;23642;42.658;23.350;2023-12-04T01:51:59;50308.63;;;-146.31;81.27
2036;BME280;23642;42.658;23.350;2023-12-04T01:54:45;50310.69;;;-146.31;81.54
2036;BME280;23642;42.658;23.350;2023-12-04T02:00:18;50323.06;;;-146.31;82.39
2036;BME280;23642;42.658;23.350;2023-12-04T02:03:01;50316.88;;;-146.31;82.37
2036;BME280;23642;42.658;23.350;2023-12-04T02:05:31;50285.94;;;-146.31;82.81
2036;BME280;23642;42.658;23.350;2023-12-04T02:08:37;50308.63;;;-146.31;82.84
2036;BME280;23642;42.658;23.350;2023-12-04T02:14:41;50283.88;;;-146.31;83.00
2036;BME280;23642;42.658;23.350;2023-12-04T02:17:28;50263.25;;;-146.31;83.01
2036;BME280;23642;42.658;23.350;2023-12-04T02:20:16;50275.63;;;-146.31;83.59
2036;BME280;23642;42.658;23.350;2023-12-04T02:22:49;50288.00;;;-146.31;84.38
2036;BME280;23642;42.658;23.350;2023-12-04T02:25:28;50242.63;;;-146.31;83.74
2036;BME280;23642;42.658;23.350;2023-12-04T02:28:06;50300.38;;;-146.31;82.89
2036;BME280;23642;42.658;23.350;2023-12-04T02:30:56;50335.44;;;-146.31;82.79
2036;BME280;23642;42.658;23.350;2023-12-04T02:33:58;50294.19;;;-146.31;83.02
2036;BME280;23642;42.658;23.350;2023-12-04T02:40:17;50329.25;;;-146.31;82.91
2036;BME280;23642;42.658;23.350;2023-12-04T02:46:22;50298.31;;;-146.31;83.12
2036;BME280;23642;42.658;23.350;2023-12-04T02:48:53;50292.13;;;-146.31;82.27
2036;BME280;23642;42.658;23.350;2023-12-04T02:51:44;50356.06;;;-146.31;81.47
2036;BME280;23642;42.658;23.350;2023-12-04T02:54:20;50382.88;;;-146.31;81.64
2036;BME280;23642;42.658;23.350;2023-12-04T03:01:03;50374.63;;;-146.31;82.57
2036;BME280;23642;42.658;23.350;2023-12-04T03:03:36;50370.50;;;-146.31;83.29
2036;BME280;23642;42.658;23.350;2023-12-04T03:06:28;50393.19;;;-146.31;83.84
2036;BME280;23642;42.658;23.350;2023-12-04T03:09:19;50376.69;;;-146.31;84.62
2036;BME280;23642;42.658;23.350;2023-12-04T03:18:44;50345.75;;;-146.31;85.35
2036;BME280;23642;42.658;23.350;2023-12-04T03:21:48;50323.06;;;-146.31;85.83
2036;BME280;23642;42.658;23.350;2023-12-04T03:28:37;50395.25;;;-146.31;83.99
2036;BME280;23642;42.658;23.350;2023-12-04T03:40:56;50358.13;;;-146.31;84.96
2036;BME280;23642;42.658;23.350;2023-12-04T03:44:02;50370.50;;;-146.31;85.08
2036;BME280;23642;42.658;23.350;2023-12-04T03:46:54;50345.75;;;-146.31;86.05
2036;BME280;23642;42.658;23.350;2023-12-04T03:49:31;50329.25;;;-146.31;85.64
2036;BME280;23642;42.658;23.350;2023-12-04T03:52:19;50343.69;;;-146.31;86.34
2036;BME280;23642;42.658;23.350;2023-12-04T03:54:50;50337.50;;;-146.31;85.72
2036;BME280;23642;42.658;23.350;2023-12-04T03:57:31;50327.19;;;-146.31;85.49
2036;BME280;23642;42.658;23.350;2023-12-04T04:03:56;50349.88;;;-146.31;85.36
2036;BME280;23642;42.658;23.350;2023-12-04T04:06:29;50358.13;;;-146.31;85.72
2036;BME280;23642;42.658;23.350;2023-12-04T04:13:28;50329.25;;;-146.31;86.06
2036;BME280;23642;42.658;23.350;2023-12-04T04:16:17;50362.25;;;-146.31;85.28
2036;BME280;23642;42.658;23.350;2023-12-04T04:22:38;50349.88;;;-146.31;85.35
2036;BME280;23642;42.658;23.350;2023-12-04T04:25:28;50378.75;;;-146.31;84.59
2036;BME280;23642;42.658;23.350;2023-12-04T04:28:46;50382.88;;;-146.31;84.09
2036;BME280;23642;42.658;23.350;2023-12-04T04:32:07;50417.94;;;-146.31;84.26
2036;BME280;23642;42.658;23.350;2023-12-04T04:37:46;50401.44;;;-146.31;83.98
2036;BME280;23642;42.658;23.350;2023-12-04T04:40:38;50391.13;;;-146.31;83.68
2036;BME280;23642;42.658;23.350;2023-12-04T04:43:49;50393.19;;;-146.31;83.32
2036;BME280;23642;42.658;23.350;2023-12-04T05:03:12;50502.50;;;-146.31;80.69
2036;BME280;23642;42.658;23.350;2023-12-04T05:06:24;50514.88;;;-146.31;80.71
2036;BME280;23642;42.658;23.350;2023-12-04T05:09:47;50502.50;;;-146.31;81.21
2036;BME280;23642;42.658;23.350;2023-12-04T05:13:01;50496.31;;;-146.31;81.33
2036;BME280;23642;42.658;23.350;2023-12-04T05:15:53;50541.69;;;-146.31;81.37
2036;BME280;23642;42.658;23.350;2023-12-04T05:18:50;50481.88;;;-146.31;81.64
2036;BME280;23642;42.658;23.350;2023-12-04T05:21:29;50502.50;;;-146.31;81.52
2036;BME280;23642;42.658;23.350;2023-12-04T05:24:01;50498.38;;;-146.31;82.30
2036;BME280;23642;42.658;23.350;2023-12-04T05:26:36;50521.06;;;-146.31;81.48
2036;BME280;23642;42.658;23.350;2023-12-04T05:29:34;50479.81;;;-146.31;82.43
2036;BME280;23642;42.658;23.350;2023-12-04T05:32:28;50481.88;;;-146.31;82.83
2036;BME280;23642;42.658;23.350;2023-12-04T05:38:09;50506.63;;;-146.31;82.76
2036;BME280;23642;42.658;23.350;2023-12-04T05:41:35;50479.81;;;-146.31;83.79
2036;BME280;23642;42.658;23.350;2023-12-04T05:47:19;50446.81;;;-146.31;84.54
2036;BME280;23642;42.658;23.350;2023-12-04T05:50:33;50428.25;;;-146.31;84.74
2036;BME280;23642;42.658;23.350;2023-12-04T05:57:13;50440.63;;;-146.31;84.44
2036;BME280;23642;42.658;23.350;2023-12-04T05:59:58;50420.00;;;-146.31;85.49
2036;BME280;23642;42.658;23.350;2023-12-04T06:03:07;50407.63;;;-146.31;84.69
2036;BME280;23642;42.658;23.350;2023-12-04T06:09:08;50401.44;;;-146.31;85.58
2036;BME280;23642;42.658;23.350;2023-12-04T06:15:09;50424.13;;;-146.31;84.31
2036;BME280;23642;42.658;23.350;2023-12-04T06:18:00;50438.56;;;-146.31;84.04
2036;BME280;23642;42.658;23.350;2023-12-04T06:20:47;50438.56;;;-146.31;83.52
2036;BME280;23642;42.658;23.350;2023-12-04T06:23:44;50453.00;;;-146.31;83.27
2036;BME280;23642;42.658;23.350;2023-12-04T06:27:07;50444.75;;;-146.31;83.48
2036;BME280;23642;42.658;23.350;2023-12-04T06:36:18;50473.63;;;-146.31;82.34
2036;BME280;23642;42.658;23.350;2023-12-04T06:39:25;50514.88;;;-146.31;81.37
2036;BME280;23642;42.658;23.350;2023-12-04T06:42:56;50527.25;;;-146.31;81.75
2036;BME280;23642;42.658;23.350;2023-12-04T06:45:44;50519.00;;;-146.31;82.29
2036;BME280;23642;42.658;23.350;2023-12-04T06:48:27;50508.69;;;-146.31;81.76
2036;BME280;23642;42.658;23.350;2023-12-04T06:51:15;50516.94;;;-146.31;81.10
2036;BME280;23642;42.658;23.350;2023-12-04T06:53:58;50519.00;;;-146.31;81.09
2036;BME280;23642;42.658;23.350;2023-12-04T06:56:53;50531.38;;;-146.31;81.09
2036;BME280;23642;42.658;23.350;2023-12-04T06:59:40;50539.63;;;-146.31;81.10
2036;BME280;23642;42.658;23.350;2023-12-04T07:10:14;50541.69;;;-146.31;80.72
2036;BME280;23642;42.658;23.350;2023-12-04T07:13:01;50568.50;;;-146.31;80.32
2036;BME280;23642;42.658;23.350;2023-12-04T07:15:46;50562.31;;;-146.31;79.51
2036;BME280;23642;42.658;23.350;2023-12-04T07:18:33;50560.25;;;-146.31;79.33
2036;BME280;23642;42.658;23.350;2023-12-04T07:23:51;50597.38;;;-146.31;80.00
2036;BME280;23642;42.658;23.350;2023-12-04T07:26:30;50585.00;;;-146.31;80.70
2036;BME280;23642;42.658;23.350;2023-12-04T07:29:15;50593.25;;;-146.31;80.52
2036;BME280;23642;42.658;23.350;2023-12-04T07:32:03;50578.81;;;-146.31;81.17
2036;BME280;23642;42.658;23.350;2023-12-04T07:38:07;50615.94;;;-146.31;80.64
2036;BME280;23642;42.658;23.350;2023-12-04T07:40:52;50589.13;;;-146.31;80.71
2036;BME280;23642;42.658;23.350;2023-12-04T07:43:25;50593.25;;;-146.31;80.39
2036;BME280;23642;42.658;23.350;2023-12-04T07:46:48;50593.25;;;-146.31;79.94
2036;BME280;23642;42.658;23.350;2023-12-04T07:52:53;50638.63;;;-146.31;78.54
2036;BME280;23642;42.658;23.350;2023-12-04T07:55:41;50646.88;;;-146.31;78.60
2036;BME280;23642;42.658;23.350;2023-12-04T08:02:39;50686.06;;;-146.31;77.88
2036;BME280;23642;42.658;23.350;2023-12-04T08:05:30;50737.63;;;-146.31;77.42
2036;BME280;23642;42.658;23.350;2023-12-04T08:08:01;50692.25;;;-146.31;77.29
2036;BME280;23642;42.658;23.350;2023-12-04T08:11:11;50766.50;;;-146.31;76.68
2036;BME280;23642;42.658;23.350;2023-12-04T08:13:47;50789.19;;;-146.31;75.73
2036;BME280;23642;42.658;23.350;2023-12-04T08:20:05;50811.88;;;-146.31;74.04
2036;BME280;23642;42.658;23.350;2023-12-04T08:22:39;50809.81;;;-146.31;73.53
2036;BME280;23642;42.658;23.350;2023-12-04T08:25:20;50921.19;;;-146.31;72.17
2036;BME280;23642;42.658;23.350;2023-12-04T08:28:14;50898.50;;;-146.31;72.31
2036;BME280;23642;42.658;23.350;2023-12-04T08:30:41;50904.69;;;-146.31;71.94
2036;BME280;23642;42.658;23.350;2023-12-04T08:33:29;50950.06;;;-146.31;70.50
2036;BME280;23642;42.658;23.350;2023-12-04T08:36:10;51040.81;;;-146.31;69.01
2036;BME280;23642;42.658;23.350;2023-12-04T08:42:09;51092.41;;;-146.31;67.86
2036;BME280;23642;42.658;23.350;2023-12-04T08:44:51;51123.34;;;-146.31;68.10
2036;BME280;23642;42.658;23.350;2023-12-04T08:47:24;51108.91;;;-146.31;68.18
2036;BME280;23642;42.658;23.350;2023-12-04T08:49:51;51065.56;;;-146.31;68.49
2036;BME280;23642;42.658;23.350;2023-12-04T08:52:21;51092.41;;;-146.31;68.27
2036;BME280;23642;42.658;23.350;2023-12-04T08:55:03;51071.75;;;-146.31;68.00
2036;BME280;23642;42.658;23.350;2023-12-04T08:57:39;51141.91;;;-146.31;67.50
2036;BME280;23642;42.658;23.350;2023-12-04T09:00:07;51183.16;;;-146.31;66.95
2036;BME280;23642;42.658;23.350;2023-12-04T09:02:36;51242.97;;;-146.31;66.96
2036;BME280;23642;42.658;23.350;2023-12-04T09:05:03;51214.09;;;-146.31;67.59
2036;BME280;23642;42.658;23.350;2023-12-04T09:07:32;51212.03;;;-146.31;67.83
2036;BME280;23642;42.658;23.350;2023-12-04T09:09:59;51191.41;;;-146.31;66.74
2036;BME280;23642;42.658;23.350;2023-12-04T09:12:26;51265.69;;;-146.31;65.93
2036;BME280;23642;42.658;23.350;2023-12-04T09:14:53;51240.91;;;-146.31;66.73
2036;BME280;23642;42.658;23.350;2023-12-04T09:17:35;51218.22;;;-146.31;66.73
2036;BME280;23642;42.658;23.350;2023-12-04T09:20:11;51271.88;;;-146.31;64.60
2036;BME280;23642;42.658;23.350;2023-12-04T09:22:40;51282.19;;;-146.31;65.98
2036;BME280;23642;42.658;23.350;2023-12-04T09:25:10;51290.44;;;-146.31;66.10
2036;BME280;23642;42.658;23.350;2023-12-04T09:27:39;51263.59;;;-146.31;66.34
2036;BME280;23642;42.658;23.350;2023-12-04T09:30:09;51368.81;;;-146.31;65.40
2036;BME280;23642;42.658;23.350;2023-12-04T09:32:54;51443.09;;;-146.31;64.01
2036;BME280;23642;42.658;23.350;2023-12-04T09:35:21;51467.84;;;-146.31;64.48
2036;BME280;23642;42.658;23.350;2023-12-04T09:38:03;51500.84;;;-146.31;61.92
2036;BME280;23642;42.658;23.350;2023-12-04T09:41:00;51521.47;;;-146.31;62.81
2036;BME280;23642;42.658;23.350;2023-12-04T09:53:10;51500.84;;;-146.31;57.81
2036;BME280;23642;42.658;23.350;2023-12-04T09:55:42;51556.56;;;-146.31;56.92
2036;BME280;23642;42.658;23.350;2023-12-04T09:58:13;51641.16;;;-146.31;56.29
2036;BME280;23642;42.658;23.350;2023-12-04T10:00:41;51661.78;;;-146.31;55.76
2036;BME280;23642;42.658;23.350;2023-12-04T10:03:09;51651.47;;;-146.31;54.26
2036;BME280;23642;42.658;23.350;2023-12-04T10:05:36;51719.53;;;-146.31;53.43
2036;BME280;23642;42.658;23.350;2023-12-04T10:08:05;51709.22;;;-146.31;53.56
2036;BME280;23642;42.658;23.350;2023-12-04T10:14:00;51764.94;;;-146.31;52.76
2036;BME280;23642;42.658;23.350;2023-12-04T10:16:34;51756.69;;;-146.31;52.40
2036;BME280;23642;42.658;23.350;2023-12-04T10:19:19;51781.44;;;-146.31;53.18
2036;BME280;23642;42.658;23.350;2023-12-04T10:22:05;51814.44;;;-146.31;52.08
2036;BME280;23642;42.658;23.350;2023-12-04T10:24:47;51748.44;;;-146.31;52.76
2036;BME280;23642;42.658;23.350;2023-12-04T10:28:40;51729.84;;;-146.31;53.15
2036;BME280;23642;42.658;23.350;2023-12-04T10:30:40;51758.75;;;-146.31;53.64
2036;BME280;23642;42.658;23.350;2023-12-04T10:33:13;51785.56;;;-146.31;54.05
2036;BME280;23642;42.658;23.350;2023-12-04T10:35:40;51752.56;;;-146.31;52.79
2036;BME280;23642;42.658;23.350;2023-12-04T10:38:09;51789.69;;;-146.31;53.16
2036;BME280;23642;42.658;23.350;2023-12-04T10:41:12;51899.03;;;-146.31;52.23
2036;BME280;23642;42.658;23.350;2023-12-04T10:43:48;51847.47;;;-146.31;52.20
2036;BME280;23642;42.658;23.350;2023-12-04T10:46:15;51927.94;;;-146.31;50.37
2036;BME280;23642;42.658;23.350;2023-12-04T10:48:48;51942.38;;;-146.31;50.99
2036;BME280;23642;42.658;23.350;2023-12-04T10:51:17;51942.38;;;-146.31;50.71
2036;BME280;23642;42.658;23.350;2023-12-04T10:53:46;51942.38;;;-146.31;50.66
2036;BME280;23642;42.658;23.350;2023-12-04T10:56:20;51950.63;;;-146.31;50.99
2036;BME280;23642;42.658;23.350;2023-12-04T10:59:18;51923.81;;;-146.31;51.13
2036;BME280;23642;42.658;23.350;2023-12-04T11:02:06;51927.94;;;-146.31;51.04
2036;BME280;23642;42.658;23.350;2023-12-04T11:04:38;51942.38;;;-146.31;51.58
2036;BME280;23642;42.658;23.350;2023-12-04T11:07:07;51940.31;;;-146.31;50.99
2036;BME280;23642;42.658;23.350;2023-12-04T11:09:35;51932.06;;;-146.31;51.45
2036;BME280;23642;42.658;23.350;2023-12-04T11:15:52;52000.16;;;-146.31;50.65
2036;BME280;23642;42.658;23.350;2023-12-04T11:18:26;51950.63;;;-146.31;51.21
2036;BME280;23642;42.658;23.350;2023-12-04T11:20:59;51963.00;;;-146.31;51.46
2036;BME280;23642;42.658;23.350;2023-12-04T11:23:31;51946.50;;;-146.31;51.68
2036;BME280;23642;42.658;23.350;2023-12-04T11:25:59;51975.38;;;-146.31;51.08
2036;BME280;23642;42.658;23.350;2023-12-04T11:28:27;51971.25;;;-146.31;51.91
2036;BME280;23642;42.658;23.350;2023-12-04T11:34:13;51996.03;;;-146.31;50.31
2036;BME280;23642;42.658;23.350;2023-12-04T11:36:48;52035.22;;;-146.31;50.99
2036;BME280;23642;42.658;23.350;2023-12-04T11:39:16;52070.31;;;-146.31;50.25
2036;BME280;23642;42.658;23.350;2023-12-04T11:41:50;52057.91;;;-146.31;50.61
2036;BME280;23642;42.658;23.350;2023-12-04T11:44:18;52020.78;;;-146.31;50.95
2036;BME280;23642;42.658;23.350;2023-12-04T11:46:55;52012.53;;;-146.31;51.56
2036;BME280;23642;42.658;23.350;2023-12-04T11:49:37;52039.34;;;-146.31;51.86
2036;BME280;23642;42.658;23.350;2023-12-04T11:52:05;52002.22;;;-146.31;51.37
2036;BME280;23642;42.658;23.350;2023-12-04T11:54:56;52049.66;;;-146.31;50.93
2036;BME280;23642;42.658;23.350;2023-12-04T11:57:38;52008.41;;;-146.31;50.88
2036;BME280;23642;42.658;23.350;2023-12-04T12:00:34;51996.03;;;-146.31;52.22
2036;BME280;23642;42.658;23.350;2023-12-04T12:03:32;51979.50;;;-146.31;51.82
2036;BME280;23642;42.658;23.350;2023-12-04T12:06:08;52045.53;;;-146.31;50.56
2036;BME280;23642;42.658;23.350;2023-12-04T12:12:06;52074.44;;;-146.31;51.76
2036;BME280;23642;42.658;23.350;2023-12-04T12:14:33;52074.44;;;-146.31;52.19
2036;BME280;23642;42.658;23.350;2023-12-04T12:19:32;52057.91;;;-146.31;51.38
2036;BME280;23642;42.658;23.350;2023-12-04T12:20:29;52016.66;;;-146.31;51.54
2036;BME280;23642;42.658;23.350;2023-12-04T12:26:46;51954.75;;;-146.31;54.26
2036;BME280;23642;42.658;23.350;2023-12-04T12:29:19;51987.75;;;-146.31;52.80
2036;BME280;23642;42.658;23.350;2023-12-04T12:31:51;52049.66;;;-146.31;51.07
2036;BME280;23642;42.658;23.350;2023-12-04T12:34:19;52074.44;;;-146.31;50.96
2036;BME280;23642;42.658;23.350;2023-12-04T12:36:48;52086.81;;;-146.31;51.03
2036;BME280;23642;42.658;23.350;2023-12-04T12:39:18;52082.69;;;-146.31;51.81
2036;BME280;23642;42.658;23.350;2023-12-04T12:51:49;52126.00;;;-146.31;50.67
2036;BME280;23642;42.658;23.350;2023-12-04T12:54:25;52130.13;;;-146.31;51.14
2036;BME280;23642;42.658;23.350;2023-12-04T12:57:47;52111.56;;;-146.31;51.93
2036;BME280;23642;42.658;23.350;2023-12-04T13:00:34;52111.56;;;-146.31;51.87
2036;BME280;23642;42.658;23.350;2023-12-04T13:03:15;52086.81;;;-146.31;51.90
2036;BME280;23642;42.658;23.350;2023-12-04T13:09:22;52059.97;;;-146.31;52.85
2036;BME280;23642;42.658;23.350;2023-12-04T13:15:35;52057.91;;;-146.31;53.68
2036;BME280;23642;42.658;23.350;2023-12-04T13:21:52;51996.03;;;-146.31;55.68
2036;BME280;23642;42.658;23.350;2023-12-04T13:24:29;51950.63;;;-146.31;55.69
2036;BME280;23642;42.658;23.350;2023-12-04T13:26:59;51921.75;;;-146.31;55.99
2036;BME280;23642;42.658;23.350;2023-12-04T13:30:37;51925.88;;;-146.31;56.36
2036;BME280;23642;42.658;23.350;2023-12-04T13:36:24;51849.53;;;-146.31;57.83
2036;BME280;23642;42.658;23.350;2023-12-04T13:38:53;51866.03;;;-146.31;57.93
2036;BME280;23642;42.658;23.350;2023-12-04T13:42:01;51868.09;;;-146.31;57.80
2036;BME280;23642;42.658;23.350;2023-12-04T13:44:56;51866.03;;;-146.31;58.73
2036;BME280;23642;42.658;23.350;2023-12-04T13:48:37;51845.41;;;-146.31;59.86
2036;BME280;23642;42.658;23.350;2023-12-04T13:50:40;51756.69;;;-146.31;60.08
2036;BME280;23642;42.658;23.350;2023-12-04T13:53:26;51773.19;;;-146.31;61.18
2036;BME280;23642;42.658;23.350;2023-12-04T13:56:19;51733.97;;;-146.31;61.48
2036;BME280;23642;42.658;23.350;2023-12-04T13:59:33;51725.72;;;-146.31;62.02
2036;BME280;23642;42.658;23.350;2023-12-04T14:05:38;51738.09;;;-146.31;64.10
2036;BME280;23642;42.658;23.350;2023-12-04T14:08:40;51723.66;;;-146.31;63.62
2036;BME280;23642;42.658;23.350;2023-12-04T14:11:16;51676.22;;;-146.31;64.44
2036;BME280;23642;42.658;23.350;2023-12-04T14:13:47;51721.59;;;-146.31;64.27
2036;BME280;23642;42.658;23.350;2023-12-04T14:16:30;51670.03;;;-146.31;66.12
2036;BME280;23642;42.658;23.350;2023-12-04T14:19:11;51624.63;;;-146.31;66.18
2036;BME280;23642;42.658;23.350;2023-12-04T14:21:40;51597.81;;;-146.31;66.98
2036;BME280;23642;42.658;23.350;2023-12-04T14:24:07;51616.38;;;-146.31;67.72
2036;BME280;23642;42.658;23.350;2023-12-04T14:26:34;51573.06;;;-146.31;67.99
2036;BME280;23642;42.658;23.350;2023-12-04T14:29:01;51587.50;;;-146.31;68.56
2036;BME280;23642;42.658;23.350;2023-12-04T14:31:30;51562.75;;;-146.31;69.78
2036;BME280;23642;42.658;23.350;2023-12-04T14:33:57;51500.84;;;-146.31;69.74
2036;BME280;23642;42.658;23.350;2023-12-04T14:36:24;51484.34;;;-146.31;71.33
2036;BME280;23642;42.658;23.350;2023-12-04T14:38:55;51478.16;;;-146.31;70.37
2036;BME280;23642;42.658;23.350;2023-12-04T14:41:25;51498.78;;;-146.31;71.97
2036;BME280;23642;42.658;23.350;2023-12-04T14:43:53;51434.84;;;-146.31;74.20
2036;BME280;23642;42.658;23.350;2023-12-04T14:49:47;51393.56;;;-146.31;74.75
2036;BME280;23642;42.658;23.350;2023-12-04T14:52:19;51377.06;;;-146.31;75.97
2036;BME280;23642;42.658;23.350;2023-12-04T14:55:07;51348.19;;;-146.31;75.19
2036;BME280;23642;42.658;23.350;2023-12-04T14:57:51;51339.94;;;-146.31;74.44
2036;BME280;23642;42.658;23.350;2023-12-04T15:00:46;51344.06;;;-146.31;74.97
2036;BME280;23642;42.658;23.350;2023-12-04T15:07:06;51261.56;;;-146.31;83.57
2036;BME280;23642;42.658;23.350;2023-12-04T15:09:52;51212.03;;;-146.31;88.12
2036;BME280;23642;42.658;23.350;2023-12-04T15:12:51;51172.84;;;-146.31;89.56
2036;BME280;23642;42.658;23.350;2023-12-04T15:15:47;51104.78;;;-146.31;90.39
2036;BME280;23642;42.658;23.350;2023-12-04T15:18:40;51084.16;;;-146.31;91.80
2036;BME280;23642;42.658;23.350;2023-12-04T15:21:23;51028.44;;;-146.31;93.59
2036;BME280;23642;42.658;23.350;2023-12-04T15:24:06;50935.63;;;-146.31;95.29
2036;BME280;23642;42.658;23.350;2023-12-04T15:26:33;50879.94;;;-146.31;96.04
2036;BME280;23642;42.658;23.350;2023-12-04T15:29:05;50849.00;;;-146.31;96.46
2036;BME280;23642;42.658;23.350;2023-12-04T15:31:36;50776.81;;;-146.31;96.71
2036;BME280;23642;42.658;23.350;2023-12-04T15:34:19;50719.06;;;-146.31;97.39
2036;BME280;23642;42.658;23.350;2023-12-04T15:38:22;50665.44;;;-146.31;97.79
2036;BME280;23642;42.658;23.350;2023-12-04T15:40:11;50630.38;;;-146.31;98.15
2036;BME280;23642;42.658;23.350;2023-12-04T15:42:54;50572.63;;;-146.31;98.86
2036;BME280;23642;42.658;23.350;2023-12-04T15:45:40;50508.69;;;-146.31;99.47
2036;BME280;23642;42.658;23.350;2023-12-04T15:48:09;50477.75;;;-146.31;99.31
2036;BME280;23642;42.658;23.350;2023-12-04T15:53:50;50403.50;;;-146.31;99.72
2036;BME280;23642;42.658;23.350;2023-12-04T15:56:35;50364.31;;;-146.31;99.33
2036;BME280;23642;42.658;23.350;2023-12-04T16:02:26;50325.13;;;-146.31;100.00
2036;BME280;23642;42.658;23.350;2023-12-04T16:05:21;50224.06;;;-146.31;100.00
2036;BME280;23642;42.658;23.350;2023-12-04T16:07:55;50213.75;;;-146.31;100.00
2036;BME280;23642;42.658;23.350;2023-12-04T16:10:41;50131.28;;;-146.31;100.00
2036;BME280;23642;42.658;23.350;2023-12-04T16:13:12;50092.09;;;-146.31;100.00
2036;BME280;23642;42.658;23.350;2023-12-04T16:16:21;49991.03;;;-146.31;100.00
2036;BME280;23642;42.658;23.350;2023-12-04T16:22:34;49982.78;;;-146.31;100.00
2036;BME280;23642;42.658;23.350;2023-12-04T16:28:34;49945.69;;;-146.31;100.00
2036;BME280;23642;42.658;23.350;2023-12-04T16:31:05;49906.50;;;-146.31;100.00
2036;BME280;23642;42.658;23.350;2023-12-04T16:33:36;49947.75;;;-146.31;100.00
2036;BME280;23642;42.658;23.350;2023-12-04T16:36:20;49929.19;;;-146.31;100.00
2036;BME280;23642;42.658;23.350;2023-12-04T16:38:49;49879.69;;;-146.31;100.00
2036;BME280;23642;42.658;23.350;2023-12-04T16:41:18;49887.94;;;-146.31;100.00
2036;BME280;23642;42.658;23.350;2023-12-04T16:51:04;49813.72;;;-146.31;100.00
2036;BME280;23642;42.658;23.350;2023-12-04T16:53:40;49768.34;;;-146.31;100.00
2036;BME280;23642;42.658;23.350;2023-12-04T16:56:22;49801.34;;;-146.31;100.00
2036;BME280;23642;42.658;23.350;2023-12-04T16:58:56;49809.59;;;-146.31;100.00
2036;BME280;23642;42.658;23.350;2023-12-04T17:01:26;49809.59;;;-146.31;100.00
2036;BME280;23642;42.658;23.350;2023-12-04T17:04:08;49828.13;;;-146.31;100.00
2036;BME280;23642;42.658;23.350;2023-12-04T17:06:36;49801.34;;;-146.31;100.00
2036;BME280;23642;42.658;23.350;2023-12-04T17:09:03;49784.84;;;-146.31;100.00
2036;BME280;23642;42.658;23.350;2023-12-04T17:11:41;49805.47;;;-146.31;100.00
2036;BME280;23642;42.658;23.350;2023-12-04T17:24:45;49743.59;;;-146.31;100.00
2036;BME280;23642;42.658;23.350;2023-12-04T17:27:16;49743.59;;;-146.31;100.00
2036;BME280;23642;42.658;23.350;2023-12-04T17:29:44;49727.09;;;-146.31;100.00
2036;BME280;23642;42.658;23.350;2023-12-04T17:32:11;49739.47;;;-146.31;100.00
2036;BME280;23642;42.658;23.350;2023-12-04T17:34:38;49741.53;;;-146.31;100.00
2036;BME280;23642;42.658;23.350;2023-12-04T17:37:05;49698.25;;;-146.31;100.00
2036;BME280;23642;42.658;23.350;2023-12-04T17:39:37;49729.16;;;-146.31;100.00
2036;BME280;23642;42.658;23.350;2023-12-04T17:42:23;49698.25;;;-146.31;100.00
2036;BME280;23642;42.658;23.350;2023-12-04T17:45:06;49729.16;;;-146.31;100.00
2036;BME280;23642;42.658;23.350;2023-12-04T17:47:41;49661.13;;;-146.31;100.00
2036;BME280;23642;42.658;23.350;2023-12-04T17:50:09;49700.28;;;-146.31;100.00
2036;BME280;23642;42.658;23.350;2023-12-04T17:52:40;49710.59;;;-146.31;100.00